sensor_id;sensor_type;location;lat;lon;timestamp;temperature;humidity
2100;DHT22;1055;48.854;9.302;2023-07-24T00:01:44;18.90;99.90
2100;DHT22;1055;48.854;9.302;2023-07-24T00:04:10;18.80;99.90
2100;DHT22;1055;48.854;9.302;2023-07-24T00:06:35;18.80;99.90
2100;DHT22;1055;48.854;9.302;2023-07-24T00:09:01;18.50;99.90
2100;DHT22;1055;48.854;9.302;2023-07-24T00:11:27;18.40;99.90
2100;DHT22;1055;48.854;9.302;2023-07-24T00:13:52;18.00;99.90
2100;DHT22;1055;48.854;9.302;2023-07-24T00:16:18;18.30;99.90
2100;DHT22;1055;48.854;9.302;2023-07-24T00:18:43;18.10;99.90
2100;DHT22;1055;48.854;9.302;2023-07-24T00:21:09;18.40;99.90
2100;DHT22;1055;48.854;9.302;2023-07-24T00:23:36;18.20;99.90
2100;DHT22;1055;48.854;9.302;2023-07-24T00:26:01;17.90;99.90
2100;DHT22;1055;48.854;9.302;2023-07-24T00:28:27;18.20;99.90
2100;DHT22;1055;48.854;9.302;2023-07-24T00:30:53;18.40;99.90
2100;DHT22;1055;48.854;9.302;2023-07-24T00:33:18;18.40;99.90
2100;DHT22;1055;48.854;9.302;2023-07-24T00:35:44;18.70;99.90
2100;DHT22;1055;48.854;9.302;2023-07-24T00:38:09;18.80;99.90
2100;DHT22;1055;48.854;9.302;2023-07-24T00:40:35;18.70;99.90
2100;DHT22;1055;48.854;9.302;2023-07-24T00:43:00;18.80;99.90
2100;DHT22;1055;48.854;9.302;2023-07-24T00:45:26;18.60;99.90
2100;DHT22;1055;48.854;9.302;2023-07-24T00:47:51;18.60;99.90
2100;DHT22;1055;48.854;9.302;2023-07-24T00:50:18;17.90;99.90
2100;DHT22;1055;48.854;9.302;2023-07-24T00:52:44;17.90;99.90
2100;DHT22;1055;48.854;9.302;2023-07-24T00:55:11;18.30;99.90
2100;DHT22;1055;48.854;9.302;2023-07-24T00:57:38;18.50;99.90
2100;DHT22;1055;48.854;9.302;2023-07-24T01:00:03;18.40;99.90
2100;DHT22;1055;48.854;9.302;2023-07-24T01:02:30;18.30;99.90
2100;DHT22;1055;48.854;9.302;2023-07-24T01:04:56;17.70;99.90
2100;DHT22;1055;48.854;9.302;2023-07-24T01:07:22;17.60;99.90
2100;DHT22;1055;48.854;9.302;2023-07-24T01:09:47;17.60;99.90
2100;DHT22;1055;48.854;9.302;2023-07-24T01:12:22;17.70;99.90
2100;DHT22;1055;48.854;9.302;2023-07-24T01:14:58;17.70;99.90
2100;DHT22;1055;48.854;9.302;2023-07-24T01:17:28;17.70;99.90
2100;DHT22;1055;48.854;9.302;2023-07-24T01:19:58;17.90;99.90
2100;DHT22;1055;48.854;9.302;2023-07-24T01:22:32;18.00;99.90
2100;DHT22;1055;48.854;9.302;2023-07-24T01:25:10;18.10;99.90
2100;DHT22;1055;48.854;9.302;2023-07-24T01:27:43;18.20;99.90
2100;DHT22;1055;48.854;9.302;2023-07-24T01:30:10;18.00;99.90
2100;DHT22;1055;48.854;9.302;2023-07-24T01:32:36;18.20;99.90
2100;DHT22;1055;48.854;9.302;2023-07-24T01:35:02;18.30;99.90
2100;DHT22;1055;48.854;9.302;2023-07-24T01:37:28;18.30;99.90
2100;DHT22;1055;48.854;9.302;2023-07-24T01:39:55;18.30;99.90
2100;DHT22;1055;48.854;9.302;2023-07-24T01:42:22;18.40;99.90
2100;DHT22;1055;48.854;9.302;2023-07-24T01:44:55;18.30;99.90
2100;DHT22;1055;48.854;9.302;2023-07-24T01:47:21;18.20;99.90
2100;DHT22;1055;48.854;9.302;2023-07-24T01:49:47;18.30;99.90
2100;DHT22;1055;48.854;9.302;2023-07-24T01:52:13;18.30;99.90
2100;DHT22;1055;48.854;9.302;2023-07-24T01:54:38;18.30;99.90
2100;DHT22;1055;48.854;9.302;2023-07-24T01:57:04;18.30;99.90
2100;DHT22;1055;48.854;9.302;2023-07-24T01:59:30;18.40;99.90
2100;DHT22;1055;48.854;9.302;2023-07-24T02:01:55;18.20;99.90
2100;DHT22;1055;48.854;9.302;2023-07-24T02:04:21;18.20;99.90
2100;DHT22;1055;48.854;9.302;2023-07-24T02:06:50;18.00;99.90
2100;DHT22;1055;48.854;9.302;2023-07-24T02:09:17;18.20;99.90
2100;DHT22;1055;48.854;9.302;2023-07-24T02:11:43;18.30;99.90
2100;DHT22;1055;48.854;9.302;2023-07-24T02:14:09;18.30;99.90
2100;DHT22;1055;48.854;9.302;2023-07-24T02:16:35;18.40;99.90
2100;DHT22;1055;48.854;9.302;2023-07-24T02:19:01;18.50;99.90
2100;DHT22;1055;48.854;9.302;2023-07-24T02:21:26;18.60;99.90
2100;DHT22;1055;48.854;9.302;2023-07-24T02:23:52;18.60;99.90
2100;DHT22;1055;48.854;9.302;2023-07-24T02:26:18;18.60;99.90
2100;DHT22;1055;48.854;9.302;2023-07-24T02:28:43;18.70;99.90
2100;DHT22;1055;48.854;9.302;2023-07-24T02:31:09;18.60;99.90
2100;DHT22;1055;48.854;9.302;2023-07-24T02:33:34;18.60;99.90
2100;DHT22;1055;48.854;9.302;2023-07-24T02:36:00;18.60;99.90
2100;DHT22;1055;48.854;9.302;2023-07-24T02:38:26;18.60;99.90
2100;DHT22;1055;48.854;9.302;2023-07-24T02:40:52;18.70;99.90
2100;DHT22;1055;48.854;9.302;2023-07-24T02:43:18;18.60;99.90
2100;DHT22;1055;48.854;9.302;2023-07-24T02:45:43;18.70;99.90
2100;DHT22;1055;48.854;9.302;2023-07-24T02:48:09;18.70;99.90
2100;DHT22;1055;48.854;9.302;2023-07-24T02:50:34;18.70;99.90
2100;DHT22;1055;48.854;9.302;2023-07-24T02:53:00;18.70;99.90
2100;DHT22;1055;48.854;9.302;2023-07-24T02:55:26;18.80;99.90
2100;DHT22;1055;48.854;9.302;2023-07-24T02:57:52;18.60;99.90
2100;DHT22;1055;48.854;9.302;2023-07-24T03:00:17;18.60;99.90
2100;DHT22;1055;48.854;9.302;2023-07-24T03:02:43;18.70;99.90
2100;DHT22;1055;48.854;9.302;2023-07-24T03:05:09;18.70;99.90
2100;DHT22;1055;48.854;9.302;2023-07-24T03:07:35;18.70;99.90
2100;DHT22;1055;48.854;9.302;2023-07-24T03:10:01;18.60;99.90
2100;DHT22;1055;48.854;9.302;2023-07-24T03:12:26;18.60;99.90
2100;DHT22;1055;48.854;9.302;2023-07-24T03:14:52;18.60;99.90
2100;DHT22;1055;48.854;9.302;2023-07-24T03:17:17;18.70;99.90
2100;DHT22;1055;48.854;9.302;2023-07-24T03:19:43;18.70;99.90
2100;DHT22;1055;48.854;9.302;2023-07-24T03:22:09;18.40;99.90
2100;DHT22;1055;48.854;9.302;2023-07-24T03:24:34;18.50;99.90
2100;DHT22;1055;48.854;9.302;2023-07-24T03:27:01;18.50;99.90
2100;DHT22;1055;48.854;9.302;2023-07-24T03:29:27;18.60;99.90
2100;DHT22;1055;48.854;9.302;2023-07-24T03:31:53;18.70;99.90
2100;DHT22;1055;48.854;9.302;2023-07-24T03:34:19;18.70;99.90
2100;DHT22;1055;48.854;9.302;2023-07-24T03:36:44;18.60;99.90
2100;DHT22;1055;48.854;9.302;2023-07-24T03:39:10;18.50;99.90
2100;DHT22;1055;48.854;9.302;2023-07-24T03:41:37;18.60;99.90
2100;DHT22;1055;48.854;9.302;2023-07-24T03:44:03;18.40;99.90
2100;DHT22;1055;48.854;9.302;2023-07-24T03:46:28;18.10;99.90
2100;DHT22;1055;48.854;9.302;2023-07-24T03:48:54;18.00;99.90
2100;DHT22;1055;48.854;9.302;2023-07-24T03:51:20;18.00;99.90
2100;DHT22;1055;48.854;9.302;2023-07-24T03:53:46;17.90;99.90
2100;DHT22;1055;48.854;9.302;2023-07-24T03:56:11;17.50;99.90
2100;DHT22;1055;48.854;9.302;2023-07-24T03:58:37;17.40;99.90
2100;DHT22;1055;48.854;9.302;2023-07-24T04:01:04;17.60;99.90
2100;DHT22;1055;48.854;9.302;2023-07-24T04:03:30;17.70;99.90
2100;DHT22;1055;48.854;9.302;2023-07-24T04:05:56;17.50;99.90
2100;DHT22;1055;48.854;9.302;2023-07-24T04:08:21;17.70;99.90
2100;DHT22;1055;48.854;9.302;2023-07-24T04:10:47;17.60;99.90
2100;DHT22;1055;48.854;9.302;2023-07-24T04:13:12;17.70;99.90
2100;DHT22;1055;48.854;9.302;2023-07-24T04:15:38;17.90;99.90
2100;DHT22;1055;48.854;9.302;2023-07-24T04:18:05;17.80;99.90
2100;DHT22;1055;48.854;9.302;2023-07-24T04:20:31;17.80;99.90
2100;DHT22;1055;48.854;9.302;2023-07-24T04:22:56;17.80;99.90
2100;DHT22;1055;48.854;9.302;2023-07-24T04:25:22;17.70;99.90
2100;DHT22;1055;48.854;9.302;2023-07-24T04:27:48;17.70;99.90
2100;DHT22;1055;48.854;9.302;2023-07-24T04:30:13;17.50;99.90
2100;DHT22;1055;48.854;9.302;2023-07-24T04:32:39;17.50;99.90
2100;DHT22;1055;48.854;9.302;2023-07-24T04:35:05;17.40;99.90
2100;DHT22;1055;48.854;9.302;2023-07-24T04:37:31;17.80;99.90
2100;DHT22;1055;48.854;9.302;2023-07-24T04:39:56;17.90;99.90
2100;DHT22;1055;48.854;9.302;2023-07-24T04:42:22;18.10;99.90
2100;DHT22;1055;48.854;9.302;2023-07-24T04:44:48;18.20;99.90
2100;DHT22;1055;48.854;9.302;2023-07-24T04:47:15;18.40;99.90
2100;DHT22;1055;48.854;9.302;2023-07-24T04:49:41;18.40;99.90
2100;DHT22;1055;48.854;9.302;2023-07-24T04:52:06;18.50;99.90
2100;DHT22;1055;48.854;9.302;2023-07-24T04:54:32;18.60;99.90
2100;DHT22;1055;48.854;9.302;2023-07-24T04:56:58;18.70;99.90
2100;DHT22;1055;48.854;9.302;2023-07-24T04:59:23;18.50;99.90
2100;DHT22;1055;48.854;9.302;2023-07-24T05:01:49;18.80;99.90
2100;DHT22;1055;48.854;9.302;2023-07-24T05:04:15;18.90;99.90
2100;DHT22;1055;48.854;9.302;2023-07-24T05:06:41;18.60;99.90
2100;DHT22;1055;48.854;9.302;2023-07-24T05:09:06;18.80;99.90
2100;DHT22;1055;48.854;9.302;2023-07-24T05:11:32;18.60;99.90
2100;DHT22;1055;48.854;9.302;2023-07-24T05:13:57;18.30;99.90
2100;DHT22;1055;48.854;9.302;2023-07-24T05:16:23;18.70;99.90
2100;DHT22;1055;48.854;9.302;2023-07-24T05:18:49;18.60;99.90
2100;DHT22;1055;48.854;9.302;2023-07-24T05:21:14;18.60;99.90
2100;DHT22;1055;48.854;9.302;2023-07-24T05:23:40;18.50;99.90
2100;DHT22;1055;48.854;9.302;2023-07-24T05:26:05;18.70;99.90
2100;DHT22;1055;48.854;9.302;2023-07-24T05:28:32;18.80;99.90
2100;DHT22;1055;48.854;9.302;2023-07-24T05:31:05;18.70;99.90
2100;DHT22;1055;48.854;9.302;2023-07-24T05:33:31;18.60;99.90
2100;DHT22;1055;48.854;9.302;2023-07-24T05:35:58;18.70;99.90
2100;DHT22;1055;48.854;9.302;2023-07-24T05:38:24;18.70;99.90
2100;DHT22;1055;48.854;9.302;2023-07-24T05:40:57;18.50;99.90
2100;DHT22;1055;48.854;9.302;2023-07-24T05:43:22;18.50;99.90
2100;DHT22;1055;48.854;9.302;2023-07-24T05:45:52;18.50;99.90
2100;DHT22;1055;48.854;9.302;2023-07-24T05:48:18;18.50;99.90
2100;DHT22;1055;48.854;9.302;2023-07-24T05:50:43;18.50;99.90
2100;DHT22;1055;48.854;9.302;2023-07-24T05:53:09;18.40;99.90
2100;DHT22;1055;48.854;9.302;2023-07-24T05:55:34;18.40;99.90
2100;DHT22;1055;48.854;9.302;2023-07-24T05:58:00;18.50;99.90
2100;DHT22;1055;48.854;9.302;2023-07-24T06:00:26;18.40;99.90
2100;DHT22;1055;48.854;9.302;2023-07-24T06:02:52;18.70;99.90
2100;DHT22;1055;48.854;9.302;2023-07-24T06:05:18;18.70;99.90
2100;DHT22;1055;48.854;9.302;2023-07-24T06:07:45;18.60;99.90
2100;DHT22;1055;48.854;9.302;2023-07-24T06:10:11;18.90;99.90
2100;DHT22;1055;48.854;9.302;2023-07-24T06:12:36;19.10;99.90
2100;DHT22;1055;48.854;9.302;2023-07-24T06:15:02;19.40;99.90
2100;DHT22;1055;48.854;9.302;2023-07-24T06:17:28;19.80;99.90
2100;DHT22;1055;48.854;9.302;2023-07-24T06:19:54;19.90;99.90
2100;DHT22;1055;48.854;9.302;2023-07-24T06:22:19;20.10;99.90
2100;DHT22;1055;48.854;9.302;2023-07-24T06:24:45;20.40;99.90
2100;DHT22;1055;48.854;9.302;2023-07-24T06:27:11;20.50;99.90
2100;DHT22;1055;48.854;9.302;2023-07-24T06:29:36;20.60;99.90
2100;DHT22;1055;48.854;9.302;2023-07-24T06:32:02;20.40;99.90
2100;DHT22;1055;48.854;9.302;2023-07-24T06:34:28;20.60;99.90
2100;DHT22;1055;48.854;9.302;2023-07-24T06:36:54;20.70;99.90
2100;DHT22;1055;48.854;9.302;2023-07-24T06:39:19;20.90;99.90
2100;DHT22;1055;48.854;9.302;2023-07-24T06:41:45;21.00;99.90
2100;DHT22;1055;48.854;9.302;2023-07-24T06:44:11;21.00;99.90
2100;DHT22;1055;48.854;9.302;2023-07-24T06:46:37;20.70;99.90
2100;DHT22;1055;48.854;9.302;2023-07-24T06:49:02;20.70;99.90
2100;DHT22;1055;48.854;9.302;2023-07-24T06:51:28;20.90;99.90
2100;DHT22;1055;48.854;9.302;2023-07-24T06:53:54;21.00;99.90
2100;DHT22;1055;48.854;9.302;2023-07-24T06:56:19;20.80;99.90
2100;DHT22;1055;48.854;9.302;2023-07-24T06:58:45;21.00;99.90
2100;DHT22;1055;48.854;9.302;2023-07-24T07:01:10;21.00;99.90
2100;DHT22;1055;48.854;9.302;2023-07-24T07:03:36;21.00;99.90
2100;DHT22;1055;48.854;9.302;2023-07-24T07:06:02;21.00;99.90
2100;DHT22;1055;48.854;9.302;2023-07-24T07:08:29;21.20;99.90
2100;DHT22;1055;48.854;9.302;2023-07-24T07:10:59;21.00;99.90
2100;DHT22;1055;48.854;9.302;2023-07-24T07:13:26;21.30;99.90
2100;DHT22;1055;48.854;9.302;2023-07-24T07:15:51;21.10;99.90
2100;DHT22;1055;48.854;9.302;2023-07-24T07:18:17;21.40;99.90
2100;DHT22;1055;48.854;9.302;2023-07-24T07:20:50;21.20;99.90
2100;DHT22;1055;48.854;9.302;2023-07-24T07:23:16;21.20;99.90
2100;DHT22;1055;48.854;9.302;2023-07-24T07:25:41;21.40;99.90
2100;DHT22;1055;48.854;9.302;2023-07-24T07:28:10;21.10;99.90
2100;DHT22;1055;48.854;9.302;2023-07-24T07:30:36;21.10;99.90
2100;DHT22;1055;48.854;9.302;2023-07-24T07:33:01;20.80;99.90
2100;DHT22;1055;48.854;9.302;2023-07-24T07:35:27;21.10;99.90
2100;DHT22;1055;48.854;9.302;2023-07-24T07:37:53;20.90;99.90
2100;DHT22;1055;48.854;9.302;2023-07-24T07:40:18;20.90;99.90
2100;DHT22;1055;48.854;9.302;2023-07-24T07:42:44;21.00;99.90
2100;DHT22;1055;48.854;9.302;2023-07-24T07:45:10;21.20;99.90
2100;DHT22;1055;48.854;9.302;2023-07-24T07:47:36;20.90;99.90
2100;DHT22;1055;48.854;9.302;2023-07-24T07:50:02;20.80;99.90
2100;DHT22;1055;48.854;9.302;2023-07-24T07:52:28;20.80;99.90
2100;DHT22;1055;48.854;9.302;2023-07-24T07:54:54;20.90;99.90
2100;DHT22;1055;48.854;9.302;2023-07-24T07:57:19;20.90;99.90
2100;DHT22;1055;48.854;9.302;2023-07-24T07:59:45;20.90;99.90
2100;DHT22;1055;48.854;9.302;2023-07-24T08:02:11;20.90;99.90
2100;DHT22;1055;48.854;9.302;2023-07-24T08:04:36;20.90;99.90
2100;DHT22;1055;48.854;9.302;2023-07-24T08:07:02;20.90;99.90
2100;DHT22;1055;48.854;9.302;2023-07-24T08:09:28;20.90;99.90
2100;DHT22;1055;48.854;9.302;2023-07-24T08:11:54;20.90;99.90
2100;DHT22;1055;48.854;9.302;2023-07-24T08:14:19;20.90;99.90
2100;DHT22;1055;48.854;9.302;2023-07-24T08:16:48;21.00;99.90
2100;DHT22;1055;48.854;9.302;2023-07-24T08:19:13;21.00;99.90
2100;DHT22;1055;48.854;9.302;2023-07-24T08:21:39;20.80;99.90
2100;DHT22;1055;48.854;9.302;2023-07-24T08:24:05;20.90;99.90
2100;DHT22;1055;48.854;9.302;2023-07-24T08:26:31;20.80;99.90
2100;DHT22;1055;48.854;9.302;2023-07-24T08:28:57;21.20;99.90
2100;DHT22;1055;48.854;9.302;2023-07-24T08:31:22;21.20;99.90
2100;DHT22;1055;48.854;9.302;2023-07-24T08:33:48;21.40;99.90
2100;DHT22;1055;48.854;9.302;2023-07-24T08:36:13;21.40;99.90
2100;DHT22;1055;48.854;9.302;2023-07-24T08:38:40;21.50;99.90
2100;DHT22;1055;48.854;9.302;2023-07-24T08:41:08;21.50;99.90
2100;DHT22;1055;48.854;9.302;2023-07-24T08:43:35;21.50;99.90
2100;DHT22;1055;48.854;9.302;2023-07-24T08:46:02;21.60;99.90
2100;DHT22;1055;48.854;9.302;2023-07-24T08:48:33;21.60;99.90
2100;DHT22;1055;48.854;9.302;2023-07-24T08:51:02;21.50;99.90
2100;DHT22;1055;48.854;9.302;2023-07-24T08:53:29;21.60;99.90
2100;DHT22;1055;48.854;9.302;2023-07-24T08:55:56;21.50;99.90
2100;DHT22;1055;48.854;9.302;2023-07-24T08:58:22;21.10;99.90
2100;DHT22;1055;48.854;9.302;2023-07-24T09:00:48;20.60;99.90
2100;DHT22;1055;48.854;9.302;2023-07-24T09:03:13;20.80;99.90
2100;DHT22;1055;48.854;9.302;2023-07-24T09:05:39;20.70;99.90
2100;DHT22;1055;48.854;9.302;2023-07-24T09:08:05;20.60;99.90
2100;DHT22;1055;48.854;9.302;2023-07-24T09:10:30;20.60;99.90
2100;DHT22;1055;48.854;9.302;2023-07-24T09:12:56;20.90;99.90
2100;DHT22;1055;48.854;9.302;2023-07-24T09:15:22;21.20;99.90
2100;DHT22;1055;48.854;9.302;2023-07-24T09:17:51;21.50;99.90
2100;DHT22;1055;48.854;9.302;2023-07-24T09:20:19;21.20;99.90
2100;DHT22;1055;48.854;9.302;2023-07-24T09:23:03;21.40;99.90
2100;DHT22;1055;48.854;9.302;2023-07-24T09:25:32;21.40;99.90
2100;DHT22;1055;48.854;9.302;2023-07-24T09:27:58;21.60;99.90
2100;DHT22;1055;48.854;9.302;2023-07-24T09:30:24;21.90;99.90
2100;DHT22;1055;48.854;9.302;2023-07-24T09:32:53;21.80;99.90
2100;DHT22;1055;48.854;9.302;2023-07-24T09:35:20;21.70;99.90
2100;DHT22;1055;48.854;9.302;2023-07-24T09:37:46;21.90;99.90
2100;DHT22;1055;48.854;9.302;2023-07-24T09:40:14;21.70;99.90
2100;DHT22;1055;48.854;9.302;2023-07-24T09:42:40;21.90;99.90
2100;DHT22;1055;48.854;9.302;2023-07-24T09:45:07;22.00;99.90
2100;DHT22;1055;48.854;9.302;2023-07-24T09:47:35;22.00;99.90
2100;DHT22;1055;48.854;9.302;2023-07-24T09:50:04;21.90;99.90
2100;DHT22;1055;48.854;9.302;2023-07-24T09:52:30;22.00;99.90
2100;DHT22;1055;48.854;9.302;2023-07-24T09:55:08;21.90;99.90
2100;DHT22;1055;48.854;9.302;2023-07-24T09:57:36;21.90;99.90
2100;DHT22;1055;48.854;9.302;2023-07-24T10:00:02;21.90;99.90
2100;DHT22;1055;48.854;9.302;2023-07-24T10:02:28;22.00;99.90
2100;DHT22;1055;48.854;9.302;2023-07-24T10:04:55;22.00;99.90
2100;DHT22;1055;48.854;9.302;2023-07-24T10:07:21;21.80;99.90
2100;DHT22;1055;48.854;9.302;2023-07-24T10:09:49;21.70;99.90
2100;DHT22;1055;48.854;9.302;2023-07-24T10:12:19;21.60;99.90
2100;DHT22;1055;48.854;9.302;2023-07-24T10:14:46;21.70;99.90
2100;DHT22;1055;48.854;9.302;2023-07-24T10:17:12;21.60;99.90
2100;DHT22;1055;48.854;9.302;2023-07-24T10:19:42;21.50;99.90
2100;DHT22;1055;48.854;9.302;2023-07-24T10:22:18;21.50;99.90
2100;DHT22;1055;48.854;9.302;2023-07-24T10:24:47;21.50;99.90
2100;DHT22;1055;48.854;9.302;2023-07-24T10:27:13;21.40;99.90
2100;DHT22;1055;48.854;9.302;2023-07-24T10:29:39;21.50;99.90
2100;DHT22;1055;48.854;9.302;2023-07-24T10:32:26;21.40;99.90
2100;DHT22;1055;48.854;9.302;2023-07-24T10:35:07;21.50;99.90
2100;DHT22;1055;48.854;9.302;2023-07-24T10:37:35;21.50;99.90
2100;DHT22;1055;48.854;9.302;2023-07-24T10:40:02;21.60;99.90
2100;DHT22;1055;48.854;9.302;2023-07-24T10:42:28;21.50;99.90
2100;DHT22;1055;48.854;9.302;2023-07-24T10:45:08;21.40;99.90
2100;DHT22;1055;48.854;9.302;2023-07-24T10:47:34;21.40;99.90
2100;DHT22;1055;48.854;9.302;2023-07-24T10:50:00;21.30;99.90
2100;DHT22;1055;48.854;9.302;2023-07-24T10:52:32;21.00;99.90
2100;DHT22;1055;48.854;9.302;2023-07-24T10:55:07;21.10;99.90
2100;DHT22;1055;48.854;9.302;2023-07-24T10:57:32;21.00;99.90
2100;DHT22;1055;48.854;9.302;2023-07-24T10:59:59;20.70;99.90
2100;DHT22;1055;48.854;9.302;2023-07-24T11:02:25;20.70;99.90
2100;DHT22;1055;48.854;9.302;2023-07-24T11:04:50;20.60;99.90
2100;DHT22;1055;48.854;9.302;2023-07-24T11:07:16;20.20;99.90
2100;DHT22;1055;48.854;9.302;2023-07-24T11:09:42;20.30;99.90
2100;DHT22;1055;48.854;9.302;2023-07-24T11:12:13;20.00;99.90
2100;DHT22;1055;48.854;9.302;2023-07-24T11:15:06;19.90;99.90
2100;DHT22;1055;48.854;9.302;2023-07-24T11:17:36;19.80;99.90
2100;DHT22;1055;48.854;9.302;2023-07-24T11:20:17;19.90;99.90
2100;DHT22;1055;48.854;9.302;2023-07-24T11:22:43;19.80;99.90
2100;DHT22;1055;48.854;9.302;2023-07-24T11:25:10;19.90;99.90
2100;DHT22;1055;48.854;9.302;2023-07-24T11:27:43;19.90;99.90
2100;DHT22;1055;48.854;9.302;2023-07-24T11:30:18;20.10;99.90
2100;DHT22;1055;48.854;9.302;2023-07-24T11:32:44;19.60;99.90
2100;DHT22;1055;48.854;9.302;2023-07-24T11:35:10;19.50;99.90
2100;DHT22;1055;48.854;9.302;2023-07-24T11:37:36;19.50;99.90
2100;DHT22;1055;48.854;9.302;2023-07-24T11:40:04;19.40;99.90
2100;DHT22;1055;48.854;9.302;2023-07-24T11:42:37;19.50;99.90
2100;DHT22;1055;48.854;9.302;2023-07-24T11:45:03;19.80;99.90
2100;DHT22;1055;48.854;9.302;2023-07-24T11:47:29;19.90;99.90
2100;DHT22;1055;48.854;9.302;2023-07-24T11:49:59;19.80;99.90
2100;DHT22;1055;48.854;9.302;2023-07-24T11:52:25;19.90;99.90
2100;DHT22;1055;48.854;9.302;2023-07-24T11:54:57;20.20;99.90
2100;DHT22;1055;48.854;9.302;2023-07-24T11:57:27;20.40;99.90
2100;DHT22;1055;48.854;9.302;2023-07-24T11:59:53;20.40;99.90
2100;DHT22;1055;48.854;9.302;2023-07-24T12:02:19;20.50;99.90
2100;DHT22;1055;48.854;9.302;2023-07-24T12:04:45;20.60;99.90
2100;DHT22;1055;48.854;9.302;2023-07-24T12:07:11;20.60;99.90
2100;DHT22;1055;48.854;9.302;2023-07-24T12:09:36;20.20;99.90
2100;DHT22;1055;48.854;9.302;2023-07-24T12:12:03;20.20;99.90
2100;DHT22;1055;48.854;9.302;2023-07-24T12:14:30;20.10;99.90
2100;DHT22;1055;48.854;9.302;2023-07-24T12:17:03;19.90;99.90
2100;DHT22;1055;48.854;9.302;2023-07-24T12:19:29;19.90;99.90
2100;DHT22;1055;48.854;9.302;2023-07-24T12:21:55;20.00;99.90
2100;DHT22;1055;48.854;9.302;2023-07-24T12:24:20;20.00;99.90
2100;DHT22;1055;48.854;9.302;2023-07-24T12:26:46;20.00;99.90
2100;DHT22;1055;48.854;9.302;2023-07-24T12:29:12;20.10;99.90
2100;DHT22;1055;48.854;9.302;2023-07-24T12:31:37;20.00;99.90
2100;DHT22;1055;48.854;9.302;2023-07-24T12:34:03;20.10;99.90
2100;DHT22;1055;48.854;9.302;2023-07-24T12:36:29;20.10;99.90
2100;DHT22;1055;48.854;9.302;2023-07-24T12:38:55;20.10;99.90
2100;DHT22;1055;48.854;9.302;2023-07-24T12:41:21;20.00;99.90
2100;DHT22;1055;48.854;9.302;2023-07-24T12:43:46;20.10;99.90
2100;DHT22;1055;48.854;9.302;2023-07-24T12:46:12;20.20;99.90
2100;DHT22;1055;48.854;9.302;2023-07-24T12:48:37;20.30;99.90
2100;DHT22;1055;48.854;9.302;2023-07-24T12:51:03;20.50;99.90
2100;DHT22;1055;48.854;9.302;2023-07-24T12:53:28;20.40;99.90
2100;DHT22;1055;48.854;9.302;2023-07-24T12:55:54;20.50;99.90
2100;DHT22;1055;48.854;9.302;2023-07-24T12:58:20;20.50;99.90
2100;DHT22;1055;48.854;9.302;2023-07-24T13:00:45;20.70;99.90
2100;DHT22;1055;48.854;9.302;2023-07-24T13:03:11;20.80;99.90
2100;DHT22;1055;48.854;9.302;2023-07-24T13:05:37;20.80;99.90
2100;DHT22;1055;48.854;9.302;2023-07-24T13:08:04;20.80;99.90
2100;DHT22;1055;48.854;9.302;2023-07-24T13:10:29;21.10;99.90
2100;DHT22;1055;48.854;9.302;2023-07-24T13:12:55;21.00;99.90
2100;DHT22;1055;48.854;9.302;2023-07-24T13:15:21;21.20;99.90
2100;DHT22;1055;48.854;9.302;2023-07-24T13:17:48;21.30;99.90
2100;DHT22;1055;48.854;9.302;2023-07-24T13:20:13;21.30;99.90
2100;DHT22;1055;48.854;9.302;2023-07-24T13:22:40;21.30;99.90
2100;DHT22;1055;48.854;9.302;2023-07-24T13:25:08;21.50;99.90
2100;DHT22;1055;48.854;9.302;2023-07-24T13:27:34;21.30;99.90
2100;DHT22;1055;48.854;9.302;2023-07-24T13:29:59;21.30;99.90
2100;DHT22;1055;48.854;9.302;2023-07-24T13:32:25;21.40;99.90
2100;DHT22;1055;48.854;9.302;2023-07-24T13:34:51;21.50;99.90
2100;DHT22;1055;48.854;9.302;2023-07-24T13:37:16;21.50;99.90
2100;DHT22;1055;48.854;9.302;2023-07-24T13:39:42;21.70;99.90
2100;DHT22;1055;48.854;9.302;2023-07-24T13:42:07;21.70;99.90
2100;DHT22;1055;48.854;9.302;2023-07-24T13:44:33;21.80;99.90
2100;DHT22;1055;48.854;9.302;2023-07-24T13:46:58;21.90;99.90
2100;DHT22;1055;48.854;9.302;2023-07-24T13:49:24;22.20;99.90
2100;DHT22;1055;48.854;9.302;2023-07-24T13:51:50;22.30;99.90
2100;DHT22;1055;48.854;9.302;2023-07-24T13:54:15;22.20;99.90
2100;DHT22;1055;48.854;9.302;2023-07-24T13:56:41;22.10;99.90
2100;DHT22;1055;48.854;9.302;2023-07-24T13:59:07;22.30;99.90
2100;DHT22;1055;48.854;9.302;2023-07-24T14:01:32;22.30;99.90
2100;DHT22;1055;48.854;9.302;2023-07-24T14:03:59;22.60;99.90
2100;DHT22;1055;48.854;9.302;2023-07-24T14:06:28;22.90;99.90
2100;DHT22;1055;48.854;9.302;2023-07-24T14:08:54;23.30;99.90
2100;DHT22;1055;48.854;9.302;2023-07-24T14:11:25;23.70;99.90
2100;DHT22;1055;48.854;9.302;2023-07-24T14:13:53;24.10;99.90
2100;DHT22;1055;48.854;9.302;2023-07-24T14:16:26;24.30;99.90
2100;DHT22;1055;48.854;9.302;2023-07-24T14:18:56;24.20;99.90
2100;DHT22;1055;48.854;9.302;2023-07-24T14:21:23;24.10;99.90
2100;DHT22;1055;48.854;9.302;2023-07-24T14:23:49;24.00;99.90
2100;DHT22;1055;48.854;9.302;2023-07-24T14:26:15;23.90;99.90
2100;DHT22;1055;48.854;9.302;2023-07-24T14:28:41;23.80;99.90
2100;DHT22;1055;48.854;9.302;2023-07-24T14:31:07;23.70;99.90
2100;DHT22;1055;48.854;9.302;2023-07-24T14:33:33;23.80;99.90
2100;DHT22;1055;48.854;9.302;2023-07-24T14:35:58;23.70;99.90
2100;DHT22;1055;48.854;9.302;2023-07-24T14:38:24;23.60;99.90
2100;DHT22;1055;48.854;9.302;2023-07-24T14:40:49;23.50;99.90
2100;DHT22;1055;48.854;9.302;2023-07-24T14:43:15;23.40;99.90
2100;DHT22;1055;48.854;9.302;2023-07-24T14:45:40;23.50;99.90
2100;DHT22;1055;48.854;9.302;2023-07-24T14:48:06;23.40;99.90
2100;DHT22;1055;48.854;9.302;2023-07-24T14:50:34;23.40;99.90
2100;DHT22;1055;48.854;9.302;2023-07-24T14:53:00;23.40;99.90
2100;DHT22;1055;48.854;9.302;2023-07-24T14:55:25;23.50;99.90
2100;DHT22;1055;48.854;9.302;2023-07-24T14:57:51;23.30;99.90
2100;DHT22;1055;48.854;9.302;2023-07-24T15:00:17;23.40;99.90
2100;DHT22;1055;48.854;9.302;2023-07-24T15:02:43;23.30;99.90
2100;DHT22;1055;48.854;9.302;2023-07-24T15:05:09;23.40;99.90
2100;DHT22;1055;48.854;9.302;2023-07-24T15:07:34;23.40;99.90
2100;DHT22;1055;48.854;9.302;2023-07-24T15:10:00;23.30;99.90
2100;DHT22;1055;48.854;9.302;2023-07-24T15:12:26;23.30;99.90
2100;DHT22;1055;48.854;9.302;2023-07-24T15:14:53;23.40;99.90
2100;DHT22;1055;48.854;9.302;2023-07-24T15:17:19;23.50;99.90
2100;DHT22;1055;48.854;9.302;2023-07-24T15:19:45;23.50;99.90
2100;DHT22;1055;48.854;9.302;2023-07-24T15:22:10;23.50;99.90
2100;DHT22;1055;48.854;9.302;2023-07-24T15:24:36;23.40;99.90
2100;DHT22;1055;48.854;9.302;2023-07-24T15:27:02;23.40;99.90
2100;DHT22;1055;48.854;9.302;2023-07-24T15:29:37;23.30;99.90
2100;DHT22;1055;48.854;9.302;2023-07-24T15:32:03;23.40;99.90
2100;DHT22;1055;48.854;9.302;2023-07-24T15:34:29;23.20;99.90
2100;DHT22;1055;48.854;9.302;2023-07-24T15:36:54;23.10;99.90
2100;DHT22;1055;48.854;9.302;2023-07-24T15:39:21;23.00;99.90
2100;DHT22;1055;48.854;9.302;2023-07-24T15:41:46;22.70;99.90
2100;DHT22;1055;48.854;9.302;2023-07-24T15:44:12;22.70;99.90
2100;DHT22;1055;48.854;9.302;2023-07-24T15:46:38;22.60;99.90
2100;DHT22;1055;48.854;9.302;2023-07-24T15:49:04;22.70;99.90
2100;DHT22;1055;48.854;9.302;2023-07-24T15:51:30;22.70;99.90
2100;DHT22;1055;48.854;9.302;2023-07-24T15:53:57;22.60;99.90
2100;DHT22;1055;48.854;9.302;2023-07-24T15:56:23;22.50;99.90
2100;DHT22;1055;48.854;9.302;2023-07-24T15:58:50;22.50;99.90